sensor_id;sensor_type;location;lat;lon;timestamp;P1;durP1;ratioP1;P2;durP2;ratioP2
22965;SDS011;11649;48.090;9.754;2023-11-21T00:02:21;4.75;;;1.58;;
22965;SDS011;11649;48.090;9.754;2023-11-21T00:04:48;6.93;;;1.50;;
22965;SDS011;11649;48.090;9.754;2023-11-21T00:07:16;10.85;;;1.83;;
22965;SDS011;11649;48.090;9.754;2023-11-21T00:09:43;10.23;;;1.88;;
22965;SDS011;11649;48.090;9.754;2023-11-21T00:12:10;6.65;;;1.70;;
22965;SDS011;11649;48.090;9.754;2023-11-21T00:14:37;4.40;;;1.67;;
22965;SDS011;11649;48.090;9.754;2023-11-21T00:17:07;6.47;;;1.98;;
22965;SDS011;11649;48.090;9.754;2023-11-21T00:19:34;7.10;;;1.55;;
22965;SDS011;11649;48.090;9.754;2023-11-21T00:22:01;6.85;;;1.55;;
22965;SDS011;11649;48.090;9.754;2023-11-21T00:24:28;4.43;;;1.40;;
22965;SDS011;11649;48.090;9.754;2023-11-21T00:26:55;7.47;;;1.50;;
22965;SDS011;11649;48.090;9.754;2023-11-21T00:29:22;5.68;;;1.45;;
22965;SDS011;11649;48.090;9.754;2023-11-21T00:31:48;4.28;;;1.40;;
22965;SDS011;11649;48.090;9.754;2023-11-21T00:34:15;6.47;;;1.52;;
22965;SDS011;11649;48.090;9.754;2023-11-21T00:36:42;7.13;;;1.77;;
22965;SDS011;11649;48.090;9.754;2023-11-21T00:39:09;5.28;;;1.35;;
22965;SDS011;11649;48.090;9.754;2023-11-21T00:41:38;9.77;;;1.77;;
22965;SDS011;11649;48.090;9.754;2023-11-21T00:44:04;8.10;;;1.60;;
22965;SDS011;11649;48.090;9.754;2023-11-21T00:46:33;5.43;;;1.80;;
22965;SDS011;11649;48.090;9.754;2023-11-21T00:49:00;4.95;;;1.88;;
22965;SDS011;11649;48.090;9.754;2023-11-21T00:51:27;8.80;;;1.70;;
22965;SDS011;11649;48.090;9.754;2023-11-21T00:53:53;5.88;;;1.50;;
22965;SDS011;11649;48.090;9.754;2023-11-21T00:56:21;5.72;;;1.50;;
22965;SDS011;11649;48.090;9.754;2023-11-21T00:58:49;5.55;;;1.23;;
22965;SDS011;11649;48.090;9.754;2023-11-21T01:01:19;7.03;;;1.25;;
22965;SDS011;11649;48.090;9.754;2023-11-21T01:03:46;5.15;;;1.20;;
22965;SDS011;11649;48.090;9.754;2023-11-21T01:06:13;4.63;;;1.65;;
22965;SDS011;11649;48.090;9.754;2023-11-21T01:08:41;6.85;;;1.50;;
22965;SDS011;11649;48.090;9.754;2023-11-21T01:11:10;7.68;;;1.40;;
22965;SDS011;11649;48.090;9.754;2023-11-21T01:13:39;3.97;;;1.48;;
22965;SDS011;11649;48.090;9.754;2023-11-21T01:16:06;6.78;;;1.80;;
22965;SDS011;11649;48.090;9.754;2023-11-21T01:18:37;5.00;;;1.50;;
22965;SDS011;11649;48.090;9.754;2023-11-21T01:21:04;3.65;;;1.27;;
22965;SDS011;11649;48.090;9.754;2023-11-21T01:23:31;6.05;;;1.50;;
22965;SDS011;11649;48.090;9.754;2023-11-21T01:25:57;7.75;;;1.48;;
22965;SDS011;11649;48.090;9.754;2023-11-21T01:28:24;5.03;;;1.48;;
22965;SDS011;11649;48.090;9.754;2023-11-21T01:30:52;3.30;;;1.23;;
22965;SDS011;11649;48.090;9.754;2023-11-21T01:33:23;4.68;;;1.27;;
22965;SDS011;11649;48.090;9.754;2023-11-21T01:35:51;7.07;;;1.70;;
22965;SDS011;11649;48.090;9.754;2023-11-21T01:38:21;4.50;;;1.38;;
22965;SDS011;11649;48.090;9.754;2023-11-21T01:40:48;3.53;;;1.23;;
22965;SDS011;11649;48.090;9.754;2023-11-21T01:43:15;5.25;;;1.13;;
22965;SDS011;11649;48.090;9.754;2023-11-21T01:45:43;7.38;;;1.50;;
22965;SDS011;11649;48.090;9.754;2023-11-21T01:48:18;5.90;;;1.60;;
22965;SDS011;11649;48.090;9.754;2023-11-21T01:50:48;6.35;;;1.50;;
22965;SDS011;11649;48.090;9.754;2023-11-21T01:53:15;6.05;;;1.35;;
22965;SDS011;11649;48.090;9.754;2023-11-21T01:55:42;8.15;;;1.73;;
22965;SDS011;11649;48.090;9.754;2023-11-21T01:58:11;5.97;;;1.48;;
22965;SDS011;11649;48.090;9.754;2023-11-21T02:00:41;4.68;;;1.15;;
22965;SDS011;11649;48.090;9.754;2023-11-21T02:03:08;6.82;;;1.55;;
22965;SDS011;11649;48.090;9.754;2023-11-21T02:05:36;5.78;;;1.38;;
22965;SDS011;11649;48.090;9.754;2023-11-21T02:08:03;7.25;;;1.40;;
22965;SDS011;11649;48.090;9.754;2023-11-21T02:10:30;7.47;;;1.55;;
22965;SDS011;11649;48.090;9.754;2023-11-21T02:12:58;3.55;;;1.33;;
22965;SDS011;11649;48.090;9.754;2023-11-21T02:15:26;5.18;;;1.40;;
22965;SDS011;11649;48.090;9.754;2023-11-21T02:17:55;6.07;;;1.38;;
22965;SDS011;11649;48.090;9.754;2023-11-21T02:20:25;5.03;;;1.17;;
22965;SDS011;11649;48.090;9.754;2023-11-21T02:22:53;2.65;;;1.02;;
22965;SDS011;11649;48.090;9.754;2023-11-21T02:27:54;3.10;;;1.05;;
22965;SDS011;11649;48.090;9.754;2023-11-21T02:30:22;3.15;;;0.93;;
22965;SDS011;11649;48.090;9.754;2023-11-21T02:32:51;3.83;;;1.13;;
22965;SDS011;11649;48.090;9.754;2023-11-21T02:35:21;2.58;;;0.90;;
22965;SDS011;11649;48.090;9.754;2023-11-21T02:37:48;3.50;;;1.08;;
22965;SDS011;11649;48.090;9.754;2023-11-21T02:40:15;6.47;;;1.25;;
22965;SDS011;11649;48.090;9.754;2023-11-21T02:42:47;6.72;;;1.25;;
22965;SDS011;11649;48.090;9.754;2023-11-21T02:45:14;5.43;;;1.20;;
22965;SDS011;11649;48.090;9.754;2023-11-21T02:47:43;2.63;;;1.08;;
22965;SDS011;11649;48.090;9.754;2023-11-21T02:50:11;3.28;;;1.20;;
22965;SDS011;11649;48.090;9.754;2023-11-21T02:52:38;1.50;;;0.77;;
22965;SDS011;11649;48.090;9.754;2023-11-21T02:55:08;2.47;;;1.00;;
22965;SDS011;11649;48.090;9.754;2023-11-21T02:57:35;5.57;;;1.20;;
22965;SDS011;11649;48.090;9.754;2023-11-21T03:00:02;4.55;;;1.00;;
22965;SDS011;11649;48.090;9.754;2023-11-21T03:02:33;2.92;;;1.27;;
22965;SDS011;11649;48.090;9.754;2023-11-21T03:05:06;3.85;;;1.10;;
22965;SDS011;11649;48.090;9.754;2023-11-21T03:07:36;6.07;;;1.48;;
22965;SDS011;11649;48.090;9.754;2023-11-21T03:10:05;4.45;;;1.27;;
22965;SDS011;11649;48.090;9.754;2023-11-21T03:12:36;2.85;;;0.90;;
22965;SDS011;11649;48.090;9.754;2023-11-21T03:15:07;1.98;;;1.10;;
22965;SDS011;11649;48.090;9.754;2023-11-21T03:17:35;7.72;;;1.30;;
22965;SDS011;11649;48.090;9.754;2023-11-21T03:20:02;5.20;;;1.77;;
22965;SDS011;11649;48.090;9.754;2023-11-21T03:22:30;5.43;;;1.58;;
22965;SDS011;11649;48.090;9.754;2023-11-21T03:24:57;4.75;;;1.42;;
22965;SDS011;11649;48.090;9.754;2023-11-21T03:27:25;5.90;;;1.58;;
22965;SDS011;11649;48.090;9.754;2023-11-21T03:29:51;2.20;;;1.20;;
22965;SDS011;11649;48.090;9.754;2023-11-21T03:32:18;6.93;;;1.67;;
22965;SDS011;11649;48.090;9.754;2023-11-21T03:34:57;8.02;;;1.60;;
22965;SDS011;11649;48.090;9.754;2023-11-21T03:37:26;6.22;;;1.90;;
22965;SDS011;11649;48.090;9.754;2023-11-21T03:39:55;4.45;;;1.65;;
22965;SDS011;11649;48.090;9.754;2023-11-21T03:42:23;7.30;;;1.58;;
22965;SDS011;11649;48.090;9.754;2023-11-21T03:44:53;7.85;;;1.77;;
22965;SDS011;11649;48.090;9.754;2023-11-21T03:47:20;5.25;;;1.80;;
22965;SDS011;11649;48.090;9.754;2023-11-21T03:49:47;4.85;;;1.42;;
22965;SDS011;11649;48.090;9.754;2023-11-21T03:52:13;5.63;;;1.70;;
22965;SDS011;11649;48.090;9.754;2023-11-21T03:54:43;4.65;;;1.60;;
22965;SDS011;11649;48.090;9.754;2023-11-21T03:57:10;5.15;;;1.35;;
22965;SDS011;11649;48.090;9.754;2023-11-21T03:59:41;4.80;;;1.63;;
22965;SDS011;11649;48.090;9.754;2023-11-21T04:02:08;3.00;;;1.25;;
22965;SDS011;11649;48.090;9.754;2023-11-21T04:04:35;2.70;;;1.08;;
22965;SDS011;11649;48.090;9.754;2023-11-21T04:07:03;4.57;;;1.40;;
22965;SDS011;11649;48.090;9.754;2023-11-21T04:09:30;7.57;;;1.30;;
22965;SDS011;11649;48.090;9.754;2023-11-21T04:11:57;2.60;;;1.10;;
22965;SDS011;11649;48.090;9.754;2023-11-21T04:14:24;3.05;;;1.00;;
22965;SDS011;11649;48.090;9.754;2023-11-21T04:16:51;3.65;;;1.10;;
22965;SDS011;11649;48.090;9.754;2023-11-21T04:19:18;3.38;;;1.15;;
22965;SDS011;11649;48.090;9.754;2023-11-21T04:21:45;3.08;;;1.50;;
22965;SDS011;11649;48.090;9.754;2023-11-21T04:24:12;3.03;;;1.00;;
22965;SDS011;11649;48.090;9.754;2023-11-21T04:26:39;3.53;;;1.08;;
22965;SDS011;11649;48.090;9.754;2023-11-21T04:29:06;2.47;;;0.98;;
22965;SDS011;11649;48.090;9.754;2023-11-21T04:31:32;6.47;;;1.27;;
22965;SDS011;11649;48.090;9.754;2023-11-21T04:33:59;2.78;;;0.90;;
22965;SDS011;11649;48.090;9.754;2023-11-21T04:36:30;5.95;;;1.10;;
22965;SDS011;11649;48.090;9.754;2023-11-21T04:39:01;4.18;;;1.05;;
22965;SDS011;11649;48.090;9.754;2023-11-21T04:41:28;5.00;;;1.10;;
22965;SDS011;11649;48.090;9.754;2023-11-21T04:43:55;3.22;;;0.90;;
22965;SDS011;11649;48.090;9.754;2023-11-21T04:46:22;2.80;;;0.98;;
22965;SDS011;11649;48.090;9.754;2023-11-21T04:48:49;3.38;;;1.10;;
22965;SDS011;11649;48.090;9.754;2023-11-21T04:51:15;1.55;;;0.70;;
22965;SDS011;11649;48.090;9.754;2023-11-21T04:53:42;2.53;;;0.95;;
22965;SDS011;11649;48.090;9.754;2023-11-21T04:56:09;2.40;;;0.95;;
22965;SDS011;11649;48.090;9.754;2023-11-21T04:58:36;3.25;;;1.10;;
22965;SDS011;11649;48.090;9.754;2023-11-21T05:01:03;2.58;;;0.90;;
22965;SDS011;11649;48.090;9.754;2023-11-21T05:03:33;2.72;;;1.00;;
22965;SDS011;11649;48.090;9.754;2023-11-21T05:06:01;0.75;;;0.75;;
22965;SDS011;11649;48.090;9.754;2023-11-21T05:08:28;2.72;;;0.80;;
22965;SDS011;11649;48.090;9.754;2023-11-21T05:10:55;1.73;;;0.80;;
22965;SDS011;11649;48.090;9.754;2023-11-21T05:13:22;3.15;;;0.95;;
22965;SDS011;11649;48.090;9.754;2023-11-21T05:15:56;2.05;;;0.85;;
22965;SDS011;11649;48.090;9.754;2023-11-21T05:18:23;3.47;;;1.00;;
22965;SDS011;11649;48.090;9.754;2023-11-21T05:20:53;0.98;;;0.60;;
22965;SDS011;11649;48.090;9.754;2023-11-21T05:23:20;4.13;;;0.85;;
22965;SDS011;11649;48.090;9.754;2023-11-21T05:25:47;2.80;;;0.80;;
22965;SDS011;11649;48.090;9.754;2023-11-21T05:28:14;1.90;;;0.88;;
22965;SDS011;11649;48.090;9.754;2023-11-21T05:30:44;1.65;;;0.75;;
22965;SDS011;11649;48.090;9.754;2023-11-21T05:33:11;2.42;;;0.80;;
22965;SDS011;11649;48.090;9.754;2023-11-21T05:35:41;1.75;;;0.88;;
22965;SDS011;11649;48.090;9.754;2023-11-21T05:38:08;1.15;;;0.68;;
22965;SDS011;11649;48.090;9.754;2023-11-21T05:40:35;4.35;;;0.80;;
22965;SDS011;11649;48.090;9.754;2023-11-21T05:43:03;2.38;;;0.70;;
22965;SDS011;11649;48.090;9.754;2023-11-21T05:45:31;2.63;;;1.05;;
22965;SDS011;11649;48.090;9.754;2023-11-21T05:47:58;1.00;;;0.80;;
22965;SDS011;11649;48.090;9.754;2023-11-21T05:50:25;4.95;;;1.10;;
22965;SDS011;11649;48.090;9.754;2023-11-21T05:52:52;2.08;;;1.00;;
22965;SDS011;11649;48.090;9.754;2023-11-21T05:55:19;2.13;;;0.85;;
22965;SDS011;11649;48.090;9.754;2023-11-21T05:57:52;4.90;;;1.20;;
22965;SDS011;11649;48.090;9.754;2023-11-21T06:00:19;5.55;;;1.35;;
22965;SDS011;11649;48.090;9.754;2023-11-21T06:02:48;3.05;;;1.40;;
22965;SDS011;11649;48.090;9.754;2023-11-21T06:05:24;1.65;;;1.40;;
22965;SDS011;11649;48.090;9.754;2023-11-21T06:07:53;1.92;;;1.27;;
22965;SDS011;11649;48.090;9.754;2023-11-21T06:10:21;1.83;;;1.35;;
22965;SDS011;11649;48.090;9.754;2023-11-21T06:12:51;2.65;;;1.42;;
22965;SDS011;11649;48.090;9.754;2023-11-21T06:15:18;2.58;;;1.30;;
22965;SDS011;11649;48.090;9.754;2023-11-21T06:17:47;2.03;;;1.05;;
22965;SDS011;11649;48.090;9.754;2023-11-21T06:20:19;2.03;;;0.95;;
22965;SDS011;11649;48.090;9.754;2023-11-21T06:22:47;3.45;;;1.20;;
22965;SDS011;11649;48.090;9.754;2023-11-21T06:25:16;9.38;;;1.48;;
22965;SDS011;11649;48.090;9.754;2023-11-21T06:27:44;8.02;;;1.63;;
22965;SDS011;11649;48.090;9.754;2023-11-21T06:30:13;7.38;;;1.75;;
22965;SDS011;11649;48.090;9.754;2023-11-21T06:32:41;13.63;;;2.35;;
22965;SDS011;11649;48.090;9.754;2023-11-21T06:35:13;16.13;;;2.30;;
22965;SDS011;11649;48.090;9.754;2023-11-21T06:37:43;13.73;;;2.50;;
22965;SDS011;11649;48.090;9.754;2023-11-21T06:40:18;11.57;;;2.20;;
22965;SDS011;11649;48.090;9.754;2023-11-21T06:42:47;9.30;;;2.08;;
22965;SDS011;11649;48.090;9.754;2023-11-21T06:45:14;16.45;;;2.30;;
22965;SDS011;11649;48.090;9.754;2023-11-21T06:47:44;15.85;;;2.28;;
22965;SDS011;11649;48.090;9.754;2023-11-21T06:50:12;18.58;;;2.20;;
22965;SDS011;11649;48.090;9.754;2023-11-21T06:52:39;17.75;;;2.08;;
22965;SDS011;11649;48.090;9.754;2023-11-21T06:55:06;8.52;;;1.95;;
22965;SDS011;11649;48.090;9.754;2023-11-21T06:57:35;8.35;;;1.50;;
22965;SDS011;11649;48.090;9.754;2023-11-21T07:00:02;10.85;;;1.67;;
22965;SDS011;11649;48.090;9.754;2023-11-21T07:02:29;6.13;;;1.85;;
22965;SDS011;11649;48.090;9.754;2023-11-21T07:04:56;7.30;;;1.85;;
22965;SDS011;11649;48.090;9.754;2023-11-21T07:07:23;10.90;;;1.80;;
22965;SDS011;11649;48.090;9.754;2023-11-21T07:09:50;8.88;;;2.17;;
22965;SDS011;11649;48.090;9.754;2023-11-21T07:12:18;12.02;;;3.38;;
22965;SDS011;11649;48.090;9.754;2023-11-21T07:14:45;8.20;;;2.35;;
22965;SDS011;11649;48.090;9.754;2023-11-21T07:17:12;5.82;;;1.67;;
22965;SDS011;11649;48.090;9.754;2023-11-21T07:19:39;7.65;;;2.15;;
22965;SDS011;11649;48.090;9.754;2023-11-21T07:22:06;2.70;;;1.70;;
22965;SDS011;11649;48.090;9.754;2023-11-21T07:24:33;4.07;;;1.50;;
22965;SDS011;11649;48.090;9.754;2023-11-21T07:27:03;7.53;;;2.13;;
22965;SDS011;11649;48.090;9.754;2023-11-21T07:29:33;4.72;;;1.65;;
22965;SDS011;11649;48.090;9.754;2023-11-21T07:32:05;3.85;;;1.40;;
22965;SDS011;11649;48.090;9.754;2023-11-21T07:34:32;3.78;;;1.40;;
22965;SDS011;11649;48.090;9.754;2023-11-21T07:36:59;3.40;;;1.58;;
22965;SDS011;11649;48.090;9.754;2023-11-21T07:39:29;4.05;;;1.70;;
22965;SDS011;11649;48.090;9.754;2023-11-21T07:41:58;1.88;;;1.42;;
22965;SDS011;11649;48.090;9.754;2023-11-21T07:44:25;5.90;;;3.65;;
22965;SDS011;11649;48.090;9.754;2023-11-21T07:46:55;6.40;;;2.38;;
22965;SDS011;11649;48.090;9.754;2023-11-21T07:49:24;5.05;;;2.25;;
22965;SDS011;11649;48.090;9.754;2023-11-21T07:51:59;5.47;;;1.95;;
22965;SDS011;11649;48.090;9.754;2023-11-21T07:54:35;5.88;;;1.80;;
22965;SDS011;11649;48.090;9.754;2023-11-21T07:57:43;3.22;;;1.65;;
22965;SDS011;11649;48.090;9.754;2023-11-21T08:16:07;7.88;;;3.00;;
22965;SDS011;11649;48.090;9.754;2023-11-21T08:18:34;8.07;;;4.38;;
22965;SDS011;11649;48.090;9.754;2023-11-21T08:21:01;9.70;;;4.10;;
22965;SDS011;11649;48.090;9.754;2023-11-21T08:23:29;7.38;;;4.40;;
22965;SDS011;11649;48.090;9.754;2023-11-21T08:25:56;7.50;;;2.80;;
22965;SDS011;11649;48.090;9.754;2023-11-21T08:28:23;3.78;;;2.33;;
22965;SDS011;11649;48.090;9.754;2023-11-21T08:30:52;3.90;;;2.00;;
22965;SDS011;11649;48.090;9.754;2023-11-21T08:33:20;7.20;;;3.40;;
22965;SDS011;11649;48.090;9.754;2023-11-21T08:35:48;4.00;;;2.40;;
22965;SDS011;11649;48.090;9.754;2023-11-21T08:38:15;4.90;;;2.83;;
22965;SDS011;11649;48.090;9.754;2023-11-21T08:40:42;6.60;;;3.90;;
22965;SDS011;11649;48.090;9.754;2023-11-21T08:43:08;8.48;;;4.22;;
22965;SDS011;11649;48.090;9.754;2023-11-21T08:45:37;10.52;;;5.22;;
22965;SDS011;11649;48.090;9.754;2023-11-21T08:48:04;10.68;;;5.30;;
22965;SDS011;11649;48.090;9.754;2023-11-21T08:50:32;5.63;;;2.28;;
22965;SDS011;11649;48.090;9.754;2023-11-21T08:52:59;4.93;;;1.95;;
22965;SDS011;11649;48.090;9.754;2023-11-21T08:55:25;5.45;;;2.10;;
22965;SDS011;11649;48.090;9.754;2023-11-21T08:57:54;3.08;;;2.05;;
22965;SDS011;11649;48.090;9.754;2023-11-21T09:00:23;3.38;;;2.00;;
22965;SDS011;11649;48.090;9.754;2023-11-21T09:02:50;4.18;;;2.58;;
22965;SDS011;11649;48.090;9.754;2023-11-21T09:05:17;2.50;;;1.52;;
22965;SDS011;11649;48.090;9.754;2023-11-21T09:07:45;1.83;;;1.17;;
22965;SDS011;11649;48.090;9.754;2023-11-21T09:10:12;3.72;;;1.60;;
22965;SDS011;11649;48.090;9.754;2023-11-21T09:12:39;3.30;;;1.75;;
22965;SDS011;11649;48.090;9.754;2023-11-21T09:15:07;2.33;;;1.52;;
22965;SDS011;11649;48.090;9.754;2023-11-21T09:17:36;4.03;;;1.55;;
22965;SDS011;11649;48.090;9.754;2023-11-21T09:20:03;2.65;;;1.65;;
22965;SDS011;11649;48.090;9.754;2023-11-21T09:22:32;2.15;;;1.52;;
22965;SDS011;11649;48.090;9.754;2023-11-21T09:24:59;4.32;;;1.95;;
22965;SDS011;11649;48.090;9.754;2023-11-21T09:27:26;5.28;;;1.80;;
22965;SDS011;11649;48.090;9.754;2023-11-21T09:29:53;3.80;;;1.80;;
22965;SDS011;11649;48.090;9.754;2023-11-21T09:32:20;4.95;;;2.28;;
22965;SDS011;11649;48.090;9.754;2023-11-21T09:34:48;4.68;;;1.70;;
22965;SDS011;11649;48.090;9.754;2023-11-21T09:37:16;4.55;;;2.20;;
22965;SDS011;11649;48.090;9.754;2023-11-21T09:39:43;2.42;;;1.75;;
22965;SDS011;11649;48.090;9.754;2023-11-21T09:44:48;7.10;;;2.10;;
22965;SDS011;11649;48.090;9.754;2023-11-21T09:47:25;3.05;;;1.63;;
22965;SDS011;11649;48.090;9.754;2023-11-21T09:49:52;5.03;;;1.52;;
22965;SDS011;11649;48.090;9.754;2023-11-21T09:54:52;5.10;;;1.75;;
22965;SDS011;11649;48.090;9.754;2023-11-21T09:57:20;3.42;;;2.03;;
22965;SDS011;11649;48.090;9.754;2023-11-21T09:59:53;2.75;;;1.70;;
22965;SDS011;11649;48.090;9.754;2023-11-21T10:02:26;3.95;;;1.70;;
22965;SDS011;11649;48.090;9.754;2023-11-21T10:04:58;2.42;;;1.55;;
22965;SDS011;11649;48.090;9.754;2023-11-21T10:07:26;3.63;;;1.63;;
22965;SDS011;11649;48.090;9.754;2023-11-21T10:09:57;2.53;;;1.55;;
22965;SDS011;11649;48.090;9.754;2023-11-21T10:12:25;3.83;;;1.60;;
22965;SDS011;11649;48.090;9.754;2023-11-21T10:14:54;2.75;;;1.33;;
22965;SDS011;11649;48.090;9.754;2023-11-21T10:17:24;2.97;;;1.35;;
22965;SDS011;11649;48.090;9.754;2023-11-21T10:19:56;3.03;;;1.30;;
22965;SDS011;11649;48.090;9.754;2023-11-21T10:22:23;2.97;;;1.40;;
22965;SDS011;11649;48.090;9.754;2023-11-21T10:24:52;1.83;;;1.40;;
22965;SDS011;11649;48.090;9.754;2023-11-21T10:27:20;3.00;;;1.55;;
22965;SDS011;11649;48.090;9.754;2023-11-21T10:29:46;2.35;;;1.27;;
22965;SDS011;11649;48.090;9.754;2023-11-21T10:32:13;4.72;;;1.85;;
22965;SDS011;11649;48.090;9.754;2023-11-21T10:34:40;2.33;;;1.52;;
22965;SDS011;11649;48.090;9.754;2023-11-21T10:37:14;2.75;;;1.60;;
22965;SDS011;11649;48.090;9.754;2023-11-21T10:39:43;2.35;;;1.60;;
22965;SDS011;11649;48.090;9.754;2023-11-21T10:42:11;3.08;;;2.05;;
22965;SDS011;11649;48.090;9.754;2023-11-21T10:44:38;3.88;;;2.42;;
22965;SDS011;11649;48.090;9.754;2023-11-21T10:47:08;2.38;;;1.65;;
22965;SDS011;11649;48.090;9.754;2023-11-21T10:49:38;2.58;;;1.50;;
22965;SDS011;11649;48.090;9.754;2023-11-21T10:52:06;2.05;;;1.40;;
22965;SDS011;11649;48.090;9.754;2023-11-21T10:54:33;2.80;;;1.75;;
22965;SDS011;11649;48.090;9.754;2023-11-21T10:57:02;3.35;;;1.90;;
22965;SDS011;11649;48.090;9.754;2023-11-21T10:59:30;1.95;;;1.45;;
22965;SDS011;11649;48.090;9.754;2023-11-21T11:01:59;3.70;;;2.00;;
22965;SDS011;11649;48.090;9.754;2023-11-21T11:04:30;2.50;;;1.38;;
22965;SDS011;11649;48.090;9.754;2023-11-21T11:06:58;1.90;;;1.45;;
22965;SDS011;11649;48.090;9.754;2023-11-21T11:09:31;1.40;;;1.08;;
22965;SDS011;11649;48.090;9.754;2023-11-21T11:12:01;1.63;;;1.20;;
22965;SDS011;11649;48.090;9.754;2023-11-21T11:14:30;3.10;;;1.70;;
22965;SDS011;11649;48.090;9.754;2023-11-21T11:16:58;1.83;;;1.40;;
22965;SDS011;11649;48.090;9.754;2023-11-21T11:19:28;3.08;;;1.30;;
22965;SDS011;11649;48.090;9.754;2023-11-21T11:33:00;2.63;;;1.60;;
22965;SDS011;11649;48.090;9.754;2023-11-21T11:38:16;3.15;;;2.17;;
22965;SDS011;11649;48.090;9.754;2023-11-21T11:40:46;2.60;;;1.73;;
22965;SDS011;11649;48.090;9.754;2023-11-21T11:43:16;4.45;;;3.00;;
22965;SDS011;11649;48.090;9.754;2023-11-21T11:45:52;3.38;;;2.20;;
22965;SDS011;11649;48.090;9.754;2023-11-21T11:48:22;2.92;;;2.13;;
22965;SDS011;11649;48.090;9.754;2023-11-21T11:53:48;2.95;;;2.17;;
22965;SDS011;11649;48.090;9.754;2023-11-21T11:56:31;2.45;;;1.80;;
22965;SDS011;11649;48.090;9.754;2023-11-21T11:59:03;2.92;;;1.92;;
22965;SDS011;11649;48.090;9.754;2023-11-21T12:01:32;4.43;;;2.38;;
22965;SDS011;11649;48.090;9.754;2023-11-21T12:07:05;3.53;;;1.85;;
22965;SDS011;11649;48.090;9.754;2023-11-21T12:09:33;6.57;;;2.20;;
22965;SDS011;11649;48.090;9.754;2023-11-21T12:12:00;3.95;;;3.53;;
22965;SDS011;11649;48.090;9.754;2023-11-21T12:14:28;2.88;;;1.70;;
22965;SDS011;11649;48.090;9.754;2023-11-21T12:16:55;2.40;;;1.73;;
22965;SDS011;11649;48.090;9.754;2023-11-21T12:19:22;3.00;;;1.70;;
22965;SDS011;11649;48.090;9.754;2023-11-21T12:21:49;2.38;;;1.70;;
22965;SDS011;11649;48.090;9.754;2023-11-21T12:24:16;1.85;;;1.67;;
22965;SDS011;11649;48.090;9.754;2023-11-21T12:26:43;2.35;;;1.70;;
22965;SDS011;11649;48.090;9.754;2023-11-21T12:29:10;1.88;;;1.40;;
22965;SDS011;11649;48.090;9.754;2023-11-21T12:31:37;0.80;;;0.70;;
22965;SDS011;11649;48.090;9.754;2023-11-21T12:34:05;0.77;;;0.60;;
22965;SDS011;11649;48.090;9.754;2023-11-21T12:36:33;1.05;;;0.52;;
22965;SDS011;11649;48.090;9.754;2023-11-21T12:39:03;1.02;;;0.70;;
22965;SDS011;11649;48.090;9.754;2023-11-21T12:41:30;1.65;;;0.98;;
22965;SDS011;11649;48.090;9.754;2023-11-21T12:43:57;4.75;;;3.80;;
22965;SDS011;11649;48.090;9.754;2023-11-21T12:46:25;1.25;;;0.90;;
22965;SDS011;11649;48.090;9.754;2023-11-21T12:48:55;3.22;;;1.90;;
22965;SDS011;11649;48.090;9.754;2023-11-21T12:51:24;3.13;;;1.90;;
22965;SDS011;11649;48.090;9.754;2023-11-21T12:53:51;3.40;;;1.80;;
22965;SDS011;11649;48.090;9.754;2023-11-21T12:56:20;5.72;;;3.17;;
22965;SDS011;11649;48.090;9.754;2023-11-21T12:58:49;2.85;;;1.85;;
22965;SDS011;11649;48.090;9.754;2023-11-21T13:01:18;7.32;;;3.50;;
22965;SDS011;11649;48.090;9.754;2023-11-21T13:03:48;7.55;;;5.65;;
22965;SDS011;11649;48.090;9.754;2023-11-21T13:06:18;9.40;;;3.50;;
22965;SDS011;11649;48.090;9.754;2023-11-21T13:08:46;7.40;;;5.70;;
22965;SDS011;11649;48.090;9.754;2023-11-21T13:11:13;6.35;;;3.30;;
22965;SDS011;11649;48.090;9.754;2023-11-21T13:13:41;10.50;;;5.78;;
22965;SDS011;11649;48.090;9.754;2023-11-21T13:16:10;7.05;;;2.78;;
22965;SDS011;11649;48.090;9.754;2023-11-21T13:18:37;6.22;;;1.92;;
22965;SDS011;11649;48.090;9.754;2023-11-21T13:21:08;4.20;;;2.80;;
22965;SDS011;11649;48.090;9.754;2023-11-21T13:23:43;5.03;;;2.95;;
22965;SDS011;11649;48.090;9.754;2023-11-21T13:26:12;1.92;;;1.35;;
22965;SDS011;11649;48.090;9.754;2023-11-21T13:28:41;4.30;;;0.93;;
22965;SDS011;11649;48.090;9.754;2023-11-21T13:31:13;0.43;;;0.40;;
22965;SDS011;11649;48.090;9.754;2023-11-21T13:33:53;0.73;;;0.20;;
22965;SDS011;11649;48.090;9.754;2023-11-21T13:36:30;0.52;;;0.30;;
22965;SDS011;11649;48.090;9.754;2023-11-21T13:38:59;1.10;;;0.40;;
22965;SDS011;11649;48.090;9.754;2023-11-21T13:41:31;1.95;;;0.30;;
22965;SDS011;11649;48.090;9.754;2023-11-21T13:43:58;0.73;;;0.50;;
22965;SDS011;11649;48.090;9.754;2023-11-21T13:50:41;0.82;;;0.50;;
22965;SDS011;11649;48.090;9.754;2023-11-21T13:53:22;0.40;;;0.40;;
22965;SDS011;11649;48.090;9.754;2023-11-21T14:26:13;0.75;;;0.55;;
22965;SDS011;11649;48.090;9.754;2023-11-21T14:28:41;1.67;;;1.10;;
22965;SDS011;11649;48.090;9.754;2023-11-21T14:31:08;0.60;;;0.60;;
22965;SDS011;11649;48.090;9.754;2023-11-21T14:33:41;0.80;;;0.70;;
22965;SDS011;11649;48.090;9.754;2023-11-21T14:36:08;2.38;;;2.08;;
22965;SDS011;11649;48.090;9.754;2023-11-21T14:38:36;2.13;;;1.30;;
22965;SDS011;11649;48.090;9.754;2023-11-21T14:41:06;1.58;;;1.38;;
22965;SDS011;11649;48.090;9.754;2023-11-21T14:43:37;2.20;;;1.52;;
22965;SDS011;11649;48.090;9.754;2023-11-21T14:46:05;1.13;;;1.02;;
22965;SDS011;11649;48.090;9.754;2023-11-21T14:48:36;5.70;;;2.92;;
22965;SDS011;11649;48.090;9.754;2023-11-21T14:51:09;9.05;;;5.20;;
22965;SDS011;11649;48.090;9.754;2023-11-21T14:53:53;4.57;;;3.00;;
22965;SDS011;11649;48.090;9.754;2023-11-21T14:56:21;6.80;;;3.42;;
22965;SDS011;11649;48.090;9.754;2023-11-21T14:58:53;3.13;;;1.95;;
22965;SDS011;11649;48.090;9.754;2023-11-21T15:01:22;3.58;;;1.55;;
22965;SDS011;11649;48.090;9.754;2023-11-21T15:04:09;1.80;;;1.23;;
22965;SDS011;11649;48.090;9.754;2023-11-21T15:06:47;1.73;;;1.10;;
22965;SDS011;11649;48.090;9.754;2023-11-21T15:09:14;1.10;;;0.90;;
22965;SDS011;11649;48.090;9.754;2023-11-21T15:11:41;0.98;;;0.80;;
22965;SDS011;11649;48.090;9.754;2023-11-21T15:14:08;1.35;;;0.85;;
22965;SDS011;11649;48.090;9.754;2023-11-21T15:48:57;1.20;;;1.10;;
22965;SDS011;11649;48.090;9.754;2023-11-21T15:51:24;1.05;;;0.93;;
22965;SDS011;11649;48.090;9.754;2023-11-21T15:53:51;1.90;;;1.10;;
22965;SDS011;11649;48.090;9.754;2023-11-21T15:56:18;1.88;;;1.20;;
22965;SDS011;11649;48.090;9.754;2023-11-21T15:58:45;2.13;;;1.50;;
22965;SDS011;11649;48.090;9.754;2023-11-21T16:01:16;1.10;;;0.90;;
22965;SDS011;11649;48.090;9.754;2023-11-21T16:03:43;2.85;;;1.83;;
22965;SDS011;11649;48.090;9.754;2023-11-21T16:06:12;7.05;;;4.50;;
22965;SDS011;11649;48.090;9.754;2023-11-21T16:08:39;7.03;;;4.82;;
22965;SDS011;11649;48.090;9.754;2023-11-21T16:11:06;7.80;;;5.25;;
22965;SDS011;11649;48.090;9.754;2023-11-21T16:13:33;4.25;;;2.50;;
22965;SDS011;11649;48.090;9.754;2023-11-21T16:16:00;3.13;;;2.22;;
22965;SDS011;11649;48.090;9.754;2023-11-21T16:18:27;2.75;;;2.00;;
22965;SDS011;11649;48.090;9.754;2023-11-21T16:20:54;1.92;;;1.52;;
22965;SDS011;11649;48.090;9.754;2023-11-21T16:23:21;1.60;;;1.20;;
22965;SDS011;11649;48.090;9.754;2023-11-21T16:25:48;2.55;;;1.50;;
22965;SDS011;11649;48.090;9.754;2023-11-21T16:28:24;2.60;;;1.85;;
22965;SDS011;11649;48.090;9.754;2023-11-21T16:30:51;2.28;;;1.55;;
22965;SDS011;11649;48.090;9.754;2023-11-21T16:33:18;10.00;;;4.88;;
22965;SDS011;11649;48.090;9.754;2023-11-21T16:35:45;13.95;;;8.77;;
22965;SDS011;11649;48.090;9.754;2023-11-21T16:38:13;11.38;;;5.95;;
22965;SDS011;11649;48.090;9.754;2023-11-21T16:40:41;9.25;;;4.30;;
22965;SDS011;11649;48.090;9.754;2023-11-21T16:43:09;7.57;;;5.90;;
22965;SDS011;11649;48.090;9.754;2023-11-21T16:45:36;6.35;;;4.03;;
22965;SDS011;11649;48.090;9.754;2023-11-21T16:48:03;5.60;;;3.33;;